Time;durP1;ratioP1;P1;durP2;ratioP2;P2;SDS_P1;SDS_P2;PMS_P1;PMS_P2;Temp;Humidity;BMP_temperature;BMP_pressure;BME280_temperature;BME280_humidity;BME280_pressure;Samples;Min_cycle;Max_cycle;Signal;HPM_P1;HPM_P2
2021/05/13 00:00:23;;;;;;;0.40;0.25;;;;;;;;;;5092132;28;20020;-61
2021/05/13 00:02:48;;;;;;;0.57;0.43;;;;;;;;;;5107793;28;20072;-61
2021/05/13 00:05:14;;;;;;;0.95;0.20;;;;;;;;;;5092250;28;20031;-61
2021/05/13 00:07:39;;;;;;;0.77;0.70;;;;;;;;;;5087505;28;20032;-62
2021/05/13 00:10:06;;;;;;;0.40;0.40;;;;;;;;;;5105233;28;20016;-61
2021/05/13 00:15:10;;;;;;;0.80;0.43;;;;;;;;;;5111481;28;20466;-61
2021/05/13 00:17:36;;;;;;;0.50;0.30;;;;;;;;;;5108710;28;20407;-61
2021/05/13 00:20:03;;;;;;;0.40;0.30;;;;;;;;;;5109531;28;20016;-61
2021/05/13 00:22:29;;;;;;;0.30;0.30;;;;;;;;;;5103917;28;20035;-60
2021/05/13 00:24:58;;;;;;;0.60;0.30;;;;;;;;;;5106718;28;20378;-61
2021/05/13 00:27:24;;;;;;;1.75;0.30;;;;;;;;;;5094556;28;20047;-61
2021/05/13 00:29:49;;;;;;;0.30;0.30;;;;;;;;;;5094573;28;20028;-61
2021/05/13 00:32:14;;;;;;;0.30;0.22;;;;;;;;;;5091662;28;20050;-60
2021/05/13 00:34:39;;;;;;;0.45;0.30;;;;;;;;;;5102735;28;20073;-61
2021/05/13 00:37:04;;;;;;;0.35;0.30;;;;;;;;;;5087574;28;20012;-61
2021/05/13 00:39:30;;;;;;;0.32;0.32;;;;;;;;;;5090378;28;20020;-62
2021/05/13 00:41:55;;;;;;;0.20;0.20;;;;;;;;;;5095017;28;20107;-59
2021/05/13 00:44:21;;;;;;;1.02;0.30;;;;;;;;;;5093205;28;20027;-60
2021/05/13 00:46:46;;;;;;;0.50;0.30;;;;;;;;;;5088875;28;20107;-61
2021/05/13 00:49:15;;;;;;;0.10;0.10;;;;;;;;;;5096063;28;20097;-61
2021/05/13 00:51:40;;;;;;;0.15;0.15;;;;;;;;;;5094634;28;20019;-61
2021/05/13 00:54:05;;;;;;;0.10;0.10;;;;;;;;;;5104282;28;20501;-61
2021/05/13 00:56:31;;;;;;;0.77;0.40;;;;;;;;;;5090718;28;20486;-61
2021/05/13 00:59:01;;;;;;;0.40;0.30;;;;;;;;;;5091703;28;20076;-61
2021/05/13 01:01:36;;;;;;;0.47;0.45;;;;;;;;;;5105385;28;20012;-61
2021/05/13 01:04:02;;;;;;;0.40;0.40;;;;;;;;;;5102936;28;20518;-61
2021/05/13 01:06:27;;;;;;;0.55;0.55;;;;;;;;;;5096779;28;20050;-61
2021/05/13 01:08:52;;;;;;;0.85;0.35;;;;;;;;;;5091335;28;20042;-61
2021/05/13 01:11:17;;;;;;;0.77;0.77;;;;;;;;;;5104930;28;20024;-61
2021/05/13 01:13:55;;;;;;;1.10;1.00;;;;;;;;;;5104469;28;20368;-61
2021/05/13 01:16:27;;;;;;;0.80;0.80;;;;;;;;;;5107574;28;20020;-61
2021/05/13 01:18:52;;;;;;;1.30;1.20;;;;;;;;;;5111710;28;20466;-61
2021/05/13 01:21:18;;;;;;;1.60;1.50;;;;;;;;;;5097192;28;20069;-61
2021/05/13 01:23:43;;;;;;;0.90;0.90;;;;;;;;;;5104493;28;20089;-61
2021/05/13 01:26:08;;;;;;;1.27;1.08;;;;;;;;;;5097377;28;20030;-61
2021/05/13 01:28:34;;;;;;;1.00;0.45;;;;;;;;;;5100105;28;20459;-61
2021/05/13 01:30:59;;;;;;;1.20;1.20;;;;;;;;;;5112893;28;20058;-61
2021/05/13 01:33:26;;;;;;;1.10;1.10;;;;;;;;;;5102326;28;20049;-61
2021/05/13 01:35:52;;;;;;;0.55;0.55;;;;;;;;;;5090507;28;20579;-61
2021/05/13 01:38:18;;;;;;;1.23;1.13;;;;;;;;;;5094924;28;20042;-61
2021/05/13 01:40:57;;;;;;;0.20;0.20;;;;;;;;;;5093609;28;20367;-61
2021/05/13 01:43:23;;;;;;;0.60;0.50;;;;;;;;;;5094684;28;20020;-60
2021/05/13 01:45:48;;;;;;;0.60;0.60;;;;;;;;;;5099863;28;20236;-60
2021/05/13 01:48:14;;;;;;;1.52;0.85;;;;;;;;;;5094484;28;20020;-60
2021/05/13 01:50:39;;;;;;;15.93;2.45;;;;;;;;;;5094368;28;20020;-60
2021/05/13 01:53:05;;;;;;;0.60;0.60;;;;;;;;;;5097169;28;20026;-60
2021/05/13 01:55:31;;;;;;;0.55;0.55;;;;;;;;;;5100859;28;20493;-62
2021/05/13 01:57:57;;;;;;;0.88;0.82;;;;;;;;;;5092538;28;20013;-61
2021/05/13 02:00:23;;;;;;;1.00;1.00;;;;;;;;;;5099229;28;20355;-61
2021/05/13 02:02:49;;;;;;;0.70;0.50;;;;;;;;;;5096531;28;20022;-62
2021/05/13 02:05:15;;;;;;;1.23;1.13;;;;;;;;;;5094139;28;20142;-62
2021/05/13 02:07:41;;;;;;;0.90;0.90;;;;;;;;;;5090015;28;20530;-62
2021/05/13 02:10:06;;;;;;;0.47;0.47;;;;;;;;;;5101583;28;20044;-62
2021/05/13 02:12:31;;;;;;;0.40;0.40;;;;;;;;;;5125552;27;20019;-61
2021/05/13 02:14:57;;;;;;;0.80;0.80;;;;;;;;;;5106147;28;20020;-61
2021/05/13 02:17:22;;;;;;;0.60;0.60;;;;;;;;;;5105258;28;20481;-61
2021/05/13 02:19:47;;;;;;;0.90;0.90;;;;;;;;;;5094572;28;20023;-61
2021/05/13 02:22:12;;;;;;;0.35;0.32;;;;;;;;;;5098012;28;20096;-62
2021/05/13 02:24:38;;;;;;;0.77;0.77;;;;;;;;;;5105480;28;20485;-62
2021/05/13 02:27:03;;;;;;;0.80;0.80;;;;;;;;;;5092063;28;20159;-61
2021/05/13 02:29:28;;;;;;;0.68;0.68;;;;;;;;;;5102645;28;20446;-62
2021/05/13 02:31:53;;;;;;;6.65;0.50;;;;;;;;;;5098473;28;20112;-62
2021/05/13 02:34:19;;;;;;;0.88;0.40;;;;;;;;;;5093617;28;20020;-62
2021/05/13 02:36:44;;;;;;;2.22;0.85;;;;;;;;;;5102160;28;20028;-62
2021/05/13 02:39:09;;;;;;;0.20;0.10;;;;;;;;;;5111887;28;20023;-61
2021/05/13 02:41:34;;;;;;;0.60;0.60;;;;;;;;;;5112168;28;20051;-62
2021/05/13 02:43:59;;;;;;;0.32;0.32;;;;;;;;;;5095733;28;20047;-62
2021/05/13 02:46:25;;;;;;;0.50;0.40;;;;;;;;;;5090623;28;20420;-62
2021/05/13 02:48:50;;;;;;;0.38;0.38;;;;;;;;;;5093612;28;20016;-62
2021/05/13 02:51:15;;;;;;;0.90;0.90;;;;;;;;;;5098499;28;20016;-62
2021/05/13 02:53:40;;;;;;;0.75;0.70;;;;;;;;;;5096700;28;20012;-62
2021/05/13 02:56:06;;;;;;;0.70;0.70;;;;;;;;;;5090318;28;20024;-62
2021/05/13 02:58:31;;;;;;;0.95;0.90;;;;;;;;;;5098403;28;20016;-62
2021/05/13 03:01:09;;;;;;;0.70;0.70;;;;;;;;;;5103119;28;20024;-62
2021/05/13 03:03:34;;;;;;;0.57;0.57;;;;;;;;;;5105128;28;20027;-62
2021/05/13 03:06:00;;;;;;;0.60;0.60;;;;;;;;;;5090411;28;20187;-62
2021/05/13 03:08:25;;;;;;;0.40;0.28;;;;;;;;;;5093053;28;20024;-62
2021/05/13 03:10:50;;;;;;;0.60;0.60;;;;;;;;;;5095485;28;20399;-61
2021/05/13 03:13:26;;;;;;;0.60;0.60;;;;;;;;;;5091615;28;20372;-62
2021/05/13 03:15:52;;;;;;;0.40;0.40;;;;;;;;;;5095058;28;20026;-62
2021/05/13 03:18:18;;;;;;;0.70;0.30;;;;;;;;;;5111372;28;20027;-62
2021/05/13 03:20:50;;;;;;;0.50;0.50;;;;;;;;;;5098296;28;20024;-62
2021/05/13 03:23:16;;;;;;;0.43;0.38;;;;;;;;;;5091519;28;20024;-62
2021/05/13 03:25:44;;;;;;;0.63;0.57;;;;;;;;;;5107995;28;20016;-62
2021/05/13 03:28:09;;;;;;;0.17;0.15;;;;;;;;;;5098847;28;20519;-61
2021/05/13 03:30:36;;;;;;;0.20;0.20;;;;;;;;;;5102125;28;20185;-62
2021/05/13 03:33:01;;;;;;;0.93;0.93;;;;;;;;;;5113048;28;20080;-61
2021/05/13 03:35:27;;;;;;;0.82;0.82;;;;;;;;;;5111156;28;20027;-62
2021/05/13 03:37:53;;;;;;;1.05;0.95;;;;;;;;;;5110185;28;20099;-61
2021/05/13 03:40:18;;;;;;;1.40;1.35;;;;;;;;;;5096395;28;20120;-62
2021/05/13 03:42:43;;;;;;;1.83;1.73;;;;;;;;;;5111979;28;20061;-62
2021/05/13 03:45:08;;;;;;;1.98;1.80;;;;;;;;;;5099103;28;20023;-62
2021/05/13 03:47:34;;;;;;;2.28;2.17;;;;;;;;;;5089284;28;20069;-62
2021/05/13 03:49:59;;;;;;;1.75;1.58;;;;;;;;;;5106909;28;20356;-62
2021/05/13 03:52:24;;;;;;;0.80;0.80;;;;;;;;;;5098197;28;20024;-61
2021/05/13 03:54:49;;;;;;;2.10;1.95;;;;;;;;;;5092559;28;20282;-62
2021/05/13 03:57:15;;;;;;;2.25;2.05;;;;;;;;;;5089264;28;20107;-62
2021/05/13 03:59:41;;;;;;;2.03;1.92;;;;;;;;;;5090610;28;20016;-62
2021/05/13 04:02:22;;;;;;;2.15;1.95;;;;;;;;;;5104671;28;20019;-62
2021/05/13 04:04:47;;;;;;;0.80;0.80;;;;;;;;;;5090359;28;20421;-62
2021/05/13 04:07:13;;;;;;;1.45;1.35;;;;;;;;;;5089247;28;20032;-62
2021/05/13 04:09:38;;;;;;;1.27;1.17;;;;;;;;;;5091855;28;20019;-61
2021/05/13 04:12:03;;;;;;;1.50;1.40;;;;;;;;;;5106860;28;20028;-61
2021/05/13 04:14:28;;;;;;;0.90;0.90;;;;;;;;;;5093237;28;20016;-61
2021/05/13 04:16:55;;;;;;;0.32;0.30;;;;;;;;;;5088951;28;20016;-61
2021/05/13 04:19:20;;;;;;;0.88;0.88;;;;;;;;;;5091006;28;20394;-61
2021/05/13 04:21:46;;;;;;;0.77;0.77;;;;;;;;;;5091875;28;20019;-61
2021/05/13 04:24:13;;;;;;;1.63;1.00;;;;;;;;;;5107271;28;20012;-61
2021/05/13 04:26:40;;;;;;;0.98;0.98;;;;;;;;;;5093337;28;20033;-61
2021/05/13 04:29:05;;;;;;;1.38;1.27;;;;;;;;;;5092118;28;20363;-61
2021/05/13 04:31:31;;;;;;;1.27;1.05;;;;;;;;;;5094274;28;20034;-61
2021/05/13 04:33:56;;;;;;;0.98;0.98;;;;;;;;;;5090404;28;20115;-61
2021/05/13 04:36:21;;;;;;;0.75;0.75;;;;;;;;;;5089126;28;20039;-61
2021/05/13 04:38:46;;;;;;;1.27;0.60;;;;;;;;;;5091775;28;20030;-61
2021/05/13 04:41:12;;;;;;;0.63;0.63;;;;;;;;;;5091664;28;20027;-61
2021/05/13 04:43:37;;;;;;;0.80;0.80;;;;;;;;;;5092971;28;20054;-61
2021/05/13 04:46:03;;;;;;;0.40;0.30;;;;;;;;;;5108767;28;20034;-61
2021/05/13 04:48:39;;;;;;;0.50;0.40;;;;;;;;;;5109439;28;20030;-61
2021/05/13 04:51:04;;;;;;;0.65;0.65;;;;;;;;;;5090504;28;20032;-61
2021/05/13 04:53:30;;;;;;;0.50;0.40;;;;;;;;;;5097656;28;20111;-60
2021/05/13 04:55:55;;;;;;;0.47;0.47;;;;;;;;;;5095434;28;20032;-61
2021/05/13 04:58:20;;;;;;;0.60;0.60;;;;;;;;;;5091419;28;20016;-61
2021/05/13 05:00:45;;;;;;;1.17;0.90;;;;;;;;;;5102926;28;20034;-61
2021/05/13 05:03:11;;;;;;;0.50;0.50;;;;;;;;;;5106805;28;20066;-60
2021/05/13 05:05:36;;;;;;;0.80;0.80;;;;;;;;;;5107484;28;20030;-61
2021/05/13 05:08:01;;;;;;;0.70;0.70;;;;;;;;;;5114431;28;20016;-61
2021/05/13 05:10:26;;;;;;;1.90;0.43;;;;;;;;;;5109724;28;20030;-61
2021/05/13 05:12:52;;;;;;;0.60;0.60;;;;;;;;;;5111250;28;20134;-60
2021/05/13 05:15:17;;;;;;;0.75;0.75;;;;;;;;;;5109640;28;20114;-61
2021/05/13 05:17:42;;;;;;;1.30;1.20;;;;;;;;;;5112761;28;20039;-60
2021/05/13 05:20:08;;;;;;;1.17;1.08;;;;;;;;;;5095352;28;20380;-61
2021/05/13 05:22:33;;;;;;;1.17;1.08;;;;;;;;;;5101874;28;20072;-60
2021/05/13 05:24:59;;;;;;;1.40;1.30;;;;;;;;;;5103719;28;20061;-60
2021/05/13 05:27:24;;;;;;;0.73;0.52;;;;;;;;;;5107647;28;20059;-61
2021/05/13 05:29:49;;;;;;;1.83;1.73;;;;;;;;;;5095391;28;20032;-60
2021/05/13 05:32:14;;;;;;;2.20;1.80;;;;;;;;;;5107555;28;20028;-61
2021/05/13 05:34:40;;;;;;;1.63;1.52;;;;;;;;;;5095102;28;20621;-60
2021/05/13 05:37:05;;;;;;;2.47;2.30;;;;;;;;;;5111787;28;20455;-60
2021/05/13 05:39:30;;;;;;;2.60;2.40;;;;;;;;;;5105012;28;20016;-61
2021/05/13 05:41:55;;;;;;;2.47;2.38;;;;;;;;;;5105273;28;20286;-60
2021/05/13 05:44:21;;;;;;;2.65;2.40;;;;;;;;;;5092389;28;20016;-61
2021/05/13 05:46:46;;;;;;;2.75;2.55;;;;;;;;;;5104490;28;20016;-61
2021/05/13 05:49:12;;;;;;;2.33;2.22;;;;;;;;;;5093693;28;20043;-60
2021/05/13 05:51:37;;;;;;;4.32;3.97;;;;;;;;;;5095376;28;20379;-61
2021/05/13 05:54:02;;;;;;;4.53;4.20;;;;;;;;;;5100397;28;20020;-61
2021/05/13 05:56:28;;;;;;;5.55;5.00;;;;;;;;;;5110802;28;20031;-61
2021/05/13 05:58:53;;;;;;;5.95;5.45;;;;;;;;;;5105959;28;20505;-61
2021/05/13 06:01:18;;;;;;;6.13;5.53;;;;;;;;;;5093132;28;20174;-61
2021/05/13 06:03:43;;;;;;;6.30;5.70;;;;;;;;;;5097325;28;20077;-61
2021/05/13 06:06:09;;;;;;;7.72;6.85;;;;;;;;;;5102607;28;20020;-61
2021/05/13 06:08:34;;;;;;;5.07;4.57;;;;;;;;;;5106592;28;20061;-61
2021/05/13 06:10:59;;;;;;;3.65;3.22;;;;;;;;;;5106132;28;20046;-61
2021/05/13 06:13:24;;;;;;;8.20;6.82;;;;;;;;;;5099376;28;20360;-61
2021/05/13 06:15:49;;;;;;;6.57;6.00;;;;;;;;;;5093302;28;20054;-61
2021/05/13 06:18:15;;;;;;;6.57;5.88;;;;;;;;;;5113924;28;20015;-61
2021/05/13 06:20:40;;;;;;;3.90;3.38;;;;;;;;;;5113827;28;20027;-61
2021/05/13 06:23:07;;;;;;;7.63;6.22;;;;;;;;;;5098754;28;20094;-61
2021/05/13 06:25:32;;;;;;;4.35;3.20;;;;;;;;;;5102570;28;20027;-61
2021/05/13 06:27:58;;;;;;;7.60;6.82;;;;;;;;;;5102391;28;20517;-61
2021/05/13 06:30:23;;;;;;;7.90;7.10;;;;;;;;;;5101719;28;20407;-61
2021/05/13 06:32:49;;;;;;;7.13;6.47;;;;;;;;;;5107525;28;20020;-61
2021/05/13 06:35:15;;;;;;;5.75;5.07;;;;;;;;;;5099820;28;20016;-61
2021/05/13 06:37:40;;;;;;;8.35;7.55;;;;;;;;;;5093606;28;20449;-61
2021/05/13 06:40:06;;;;;;;5.65;4.38;;;;;;;;;;5096914;28;20375;-63
2021/05/13 06:42:31;;;;;;;8.30;7.50;;;;;;;;;;5093248;28;20024;-63
2021/05/13 06:44:56;;;;;;;8.40;7.70;;;;;;;;;;5091743;28;20024;-62
2021/05/13 06:47:21;;;;;;;7.43;6.72;;;;;;;;;;5089264;28;20031;-63
2021/05/13 06:49:47;;;;;;;7.95;7.28;;;;;;;;;;5094301;28;20028;-63
2021/05/13 06:52:12;;;;;;;8.65;7.72;;;;;;;;;;5093535;28;20540;-64
2021/05/13 06:54:37;;;;;;;6.78;6.05;;;;;;;;;;5109606;28;20024;-63
2021/05/13 06:57:02;;;;;;;5.03;3.45;;;;;;;;;;5090392;28;20035;-63
2021/05/13 06:59:28;;;;;;;6.45;5.85;;;;;;;;;;5104244;28;20092;-63
2021/05/13 07:01:56;;;;;;;6.78;6.15;;;;;;;;;;5110607;28;20023;-63
2021/05/13 07:04:27;;;;;;;1.83;1.67;;;;;;;;;;5112403;28;20354;-63
2021/05/13 07:06:52;;;;;;;6.35;4.90;;;;;;;;;;5100420;28;20023;-63
2021/05/13 07:09:17;;;;;;;6.03;5.53;;;;;;;;;;5112153;28;20020;-63
2021/05/13 07:11:42;;;;;;;5.20;4.80;;;;;;;;;;5099967;28;20592;-63
2021/05/13 07:14:08;;;;;;;3.22;2.88;;;;;;;;;;5101297;28;20281;-63
2021/05/13 07:16:34;;;;;;;5.28;4.18;;;;;;;;;;5089412;28;20066;-63
2021/05/13 07:19:00;;;;;;;4.97;4.47;;;;;;;;;;5109092;28;20056;-62
2021/05/13 07:21:25;;;;;;;5.50;3.95;;;;;;;;;;5111930;28;20397;-62
2021/05/13 07:23:50;;;;;;;4.20;3.83;;;;;;;;;;5096903;28;20420;-62
2021/05/13 07:26:15;;;;;;;2.58;1.50;;;;;;;;;;5095680;27;20019;-62
2021/05/13 07:28:41;;;;;;;3.38;3.17;;;;;;;;;;5092076;28;20834;-62
2021/05/13 07:31:06;;;;;;;3.05;2.60;;;;;;;;;;5100191;28;20012;-62
2021/05/13 07:33:32;;;;;;;3.47;2.97;;;;;;;;;;5091784;28;20360;-62
2021/05/13 07:35:57;;;;;;;3.58;2.92;;;;;;;;;;5098523;28;20430;-62
2021/05/13 07:38:22;;;;;;;3.13;1.33;;;;;;;;;;5103975;28;20016;-62
2021/05/13 07:40:48;;;;;;;5.18;3.63;;;;;;;;;;5104253;28;20451;-62
2021/05/13 07:43:13;;;;;;;2.65;2.45;;;;;;;;;;5091425;28;20016;-63
2021/05/13 07:45:43;;;;;;;2.53;2.33;;;;;;;;;;5089905;28;20463;-62
2021/05/13 07:48:09;;;;;;;4.05;2.88;;;;;;;;;;5098487;28;20069;-62
2021/05/13 07:50:34;;;;;;;3.47;3.17;;;;;;;;;;5096892;28;20024;-62
2021/05/13 07:53:00;;;;;;;3.25;2.95;;;;;;;;;;5094554;28;20095;-62
2021/05/13 07:55:25;;;;;;;3.33;3.13;;;;;;;;;;5105724;28;20359;-63
2021/05/13 07:57:51;;;;;;;3.15;2.10;;;;;;;;;;5100616;28;20047;-62
2021/05/13 08:00:16;;;;;;;3.97;3.55;;;;;;;;;;5096975;28;20047;-62
2021/05/13 08:02:41;;;;;;;4.15;2.70;;;;;;;;;;5100023;28;20015;-62
2021/05/13 08:05:07;;;;;;;3.22;2.92;;;;;;;;;;5109319;28;20026;-62
2021/05/13 08:07:32;;;;;;;1.55;1.45;;;;;;;;;;5096596;28;20049;-62
2021/05/13 08:09:57;;;;;;;4.20;2.80;;;;;;;;;;5105913;28;20024;-62
2021/05/13 08:12:23;;;;;;;3.00;2.17;;;;;;;;;;5106931;28;20015;-62
2021/05/13 08:14:48;;;;;;;3.72;3.33;;;;;;;;;;5102455;28;20019;-62
2021/05/13 08:17:13;;;;;;;4.25;3.50;;;;;;;;;;5098362;28;20027;-62
2021/05/13 08:19:39;;;;;;;1.98;1.33;;;;;;;;;;5111177;28;20015;-62
2021/05/13 08:22:04;;;;;;;2.70;2.50;;;;;;;;;;5094927;28;20035;-62
2021/05/13 08:24:30;;;;;;;4.60;3.75;;;;;;;;;;5111743;28;20016;-62
2021/05/13 08:26:57;;;;;;;3.10;2.90;;;;;;;;;;5092977;28;20044;-62
2021/05/13 08:29:24;;;;;;;5.43;3.28;;;;;;;;;;5103113;28;20395;-62
2021/05/13 08:31:49;;;;;;;4.85;3.33;;;;;;;;;;5108534;28;20024;-62
2021/05/13 08:34:14;;;;;;;3.78;3.30;;;;;;;;;;5091065;28;20030;-62
2021/05/13 08:36:40;;;;;;;2.95;2.25;;;;;;;;;;5088352;28;20020;-62
2021/05/13 08:39:05;;;;;;;2.75;2.53;;;;;;;;;;5089177;28;20022;-62
2021/05/13 08:41:31;;;;;;;3.00;2.40;;;;;;;;;;5095883;28;20024;-62
2021/05/13 08:43:57;;;;;;;2.88;2.47;;;;;;;;;;5098346;28;20372;-62
2021/05/13 08:46:22;;;;;;;4.20;2.83;;;;;;;;;;5100248;28;20059;-62
2021/05/13 08:48:48;;;;;;;1.23;0.98;;;;;;;;;;5104723;28;20145;-62
2021/05/13 08:51:14;;;;;;;2.22;2.03;;;;;;;;;;5101111;28;20027;-62
2021/05/13 08:54:06;;;;;;;5.15;2.55;;;;;;;;;;5098217;28;20020;-62
2021/05/13 08:56:32;;;;;;;2.33;2.13;;;;;;;;;;5086223;28;20043;-63
2021/05/13 08:59:05;;;;;;;3.17;2.28;;;;;;;;;;5100980;28;20497;-62
2021/05/13 09:01:32;;;;;;;4.70;2.92;;;;;;;;;;5108962;28;20334;-62
2021/05/13 09:04:01;;;;;;;2.70;2.33;;;;;;;;;;5111533;28;20381;-62
2021/05/13 09:06:40;;;;;;;3.78;3.47;;;;;;;;;;5095149;28;20101;-62
2021/05/13 09:09:09;;;;;;;1.10;0.95;;;;;;;;;;5107465;28;20015;-63
2021/05/13 09:11:34;;;;;;;2.85;1.50;;;;;;;;;;5099517;28;20080;-62
2021/05/13 09:14:00;;;;;;;2.33;2.13;;;;;;;;;;5096196;28;20425;-62
2021/05/13 09:16:27;;;;;;;2.78;2.38;;;;;;;;;;5087676;28;20404;-63
2021/05/13 09:18:53;;;;;;;2.40;2.00;;;;;;;;;;5097832;28;21069;-63
2021/05/13 09:21:18;;;;;;;3.90;2.65;;;;;;;;;;5103749;28;20526;-63
2021/05/13 09:23:43;;;;;;;2.08;1.88;;;;;;;;;;5094913;28;20091;-63
2021/05/13 09:26:19;;;;;;;2.97;1.63;;;;;;;;;;5094799;28;20111;-63
2021/05/13 09:28:46;;;;;;;2.58;2.20;;;;;;;;;;5106335;28;20081;-63
2021/05/13 09:31:31;;;;;;;4.07;1.60;;;;;;;;;;5097226;28;20020;-63
2021/05/13 09:34:01;;;;;;;1.95;1.75;;;;;;;;;;5096199;28;20421;-63
2021/05/13 09:36:27;;;;;;;2.80;2.60;;;;;;;;;;5092472;28;20066;-61
2021/05/13 09:38:53;;;;;;;2.58;1.73;;;;;;;;;;5095738;28;20480;-63
2021/05/13 09:41:31;;;;;;;4.00;2.78;;;;;;;;;;5090952;28;20046;-63
2021/05/13 09:43:56;;;;;;;2.92;1.90;;;;;;;;;;5103361;28;20448;-63
2021/05/13 09:46:35;;;;;;;3.17;2.88;;;;;;;;;;5107024;28;20047;-63
2021/05/13 09:49:00;;;;;;;2.47;2.28;;;;;;;;;;5108447;28;20422;-63
2021/05/13 09:51:27;;;;;;;2.80;2.60;;;;;;;;;;5100090;28;20106;-63
2021/05/13 09:54:17;;;;;;;3.70;2.53;;;;;;;;;;5098971;28;20016;-63
2021/05/13 09:56:46;;;;;;;1.83;1.73;;;;;;;;;;5093389;28;20203;-63
2021/05/13 09:59:30;;;;;;;2.78;2.42;;;;;;;;;;5099409;28;20122;-63
2021/05/13 10:01:56;;;;;;;2.78;2.40;;;;;;;;;;5109746;28;20043;-63
2021/05/13 10:04:22;;;;;;;2.88;2.50;;;;;;;;;;5094588;28;20031;-63
2021/05/13 10:06:47;;;;;;;2.53;1.55;;;;;;;;;;5090595;28;20004;-63
2021/05/13 10:09:14;;;;;;;2.15;1.88;;;;;;;;;;5095713;28;20379;-63
2021/05/13 10:11:40;;;;;;;1.95;1.13;;;;;;;;;;5099793;28;20463;-62
2021/05/13 10:14:06;;;;;;;4.18;2.50;;;;;;;;;;5099479;28;20024;-62
2021/05/13 10:16:33;;;;;;;1.08;0.88;;;;;;;;;;5090931;28;20013;-61
2021/05/13 10:19:01;;;;;;;2.05;0.82;;;;;;;;;;5094953;28;20027;-63
2021/05/13 10:21:29;;;;;;;3.47;1.85;;;;;;;;;;5100556;28;20011;-63
2021/05/13 10:23:55;;;;;;;3.85;1.55;;;;;;;;;;5106721;28;20034;-63
2021/05/13 10:26:30;;;;;;;1.90;1.60;;;;;;;;;;5091240;28;20540;-63
2021/05/13 10:28:55;;;;;;;6.15;0.73;;;;;;;;;;5106350;28;20111;-63
2021/05/13 10:31:33;;;;;;;1.25;1.10;;;;;;;;;;5105413;28;20102;-63
2021/05/13 10:33:59;;;;;;;0.98;0.75;;;;;;;;;;5098162;28;20368;-63
2021/05/13 10:36:24;;;;;;;2.70;1.42;;;;;;;;;;5092443;28;20030;-63
2021/05/13 10:38:51;;;;;;;4.53;1.65;;;;;;;;;;5093707;28;20225;-63
2021/05/13 10:41:28;;;;;;;2.97;1.30;;;;;;;;;;5111331;28;20375;-63
2021/05/13 10:43:54;;;;;;;3.20;2.00;;;;;;;;;;5093495;28;20077;-63
2021/05/13 10:46:29;;;;;;;3.63;1.70;;;;;;;;;;5090710;28;20032;-63
2021/05/13 10:49:13;;;;;;;2.25;1.70;;;;;;;;;;5093114;28;20046;-63
2021/05/13 10:51:38;;;;;;;2.53;2.30;;;;;;;;;;5095085;28;20382;-63
2021/05/13 10:54:04;;;;;;;3.03;2.03;;;;;;;;;;5099144;28;20115;-63
2021/05/13 10:56:29;;;;;;;3.03;2.70;;;;;;;;;;5091924;28;20024;-63
2021/05/13 10:59:09;;;;;;;2.63;2.30;;;;;;;;;;5094702;28;20425;-63
2021/05/13 11:01:51;;;;;;;5.40;3.10;;;;;;;;;;5096972;28;20363;-63
2021/05/13 11:04:23;;;;;;;2.47;1.92;;;;;;;;;;5091901;28;20020;-62
2021/05/13 11:06:58;;;;;;;3.10;2.50;;;;;;;;;;5095973;28;20117;-61
2021/05/13 11:09:33;;;;;;;3.22;1.65;;;;;;;;;;5110003;28;20072;-64
2021/05/13 11:12:11;;;;;;;3.22;2.30;;;;;;;;;;5095571;28;20506;-64
2021/05/13 11:20:27;;;;;;;2.28;1.30;;;;;;;;;;5092052;28;20087;-61
2021/05/13 11:22:54;;;;;;;1.88;1.38;;;;;;;;;;5092469;28;20421;-61
2021/05/13 11:25:19;;;;;;;2.15;1.42;;;;;;;;;;5096793;28;20107;-61
2021/05/13 11:27:45;;;;;;;7.07;1.98;;;;;;;;;;5107387;27;20139;-62
2021/05/13 11:30:10;;;;;;;4.43;2.50;;;;;;;;;;5095425;28;20089;-62
2021/05/13 11:32:36;;;;;;;3.40;2.15;;;;;;;;;;5096286;28;20024;-62
2021/05/13 11:35:02;;;;;;;4.43;2.33;;;;;;;;;;5093678;28;20028;-62
2021/05/13 11:37:30;;;;;;;2.58;1.25;;;;;;;;;;5089301;28;20030;-63
2021/05/13 11:39:56;;;;;;;2.03;1.80;;;;;;;;;;5092909;28;20020;-62
2021/05/13 11:42:21;;;;;;;5.22;2.03;;;;;;;;;;5095077;28;20532;-63
2021/05/13 11:44:58;;;;;;;3.67;1.33;;;;;;;;;;5104521;28;20031;-63
2021/05/13 11:47:29;;;;;;;2.55;1.67;;;;;;;;;;5100325;28;20039;-63
2021/05/13 11:49:55;;;;;;;4.22;2.22;;;;;;;;;;5094993;28;20555;-63
2021/05/13 11:52:20;;;;;;;1.17;0.77;;;;;;;;;;5101822;28;20020;-64
2021/05/13 11:54:45;;;;;;;4.25;2.33;;;;;;;;;;5096086;28;20435;-63
2021/05/13 11:57:11;;;;;;;3.50;2.72;;;;;;;;;;5098613;28;20008;-63
2021/05/13 11:59:36;;;;;;;3.20;2.55;;;;;;;;;;5107239;28;20069;-63
2021/05/13 12:02:02;;;;;;;6.05;2.17;;;;;;;;;;5109487;28;20474;-63
2021/05/13 12:04:28;;;;;;;4.20;2.80;;;;;;;;;;5106387;28;20486;-63
2021/05/13 12:07:00;;;;;;;3.30;2.05;;;;;;;;;;5102339;28;20016;-63
2021/05/13 12:09:26;;;;;;;2.22;1.80;;;;;;;;;;5099270;28;20019;-63
2021/05/13 12:11:52;;;;;;;2.63;1.33;;;;;;;;;;5100530;28;20081;-63
2021/05/13 12:14:24;;;;;;;3.90;2.78;;;;;;;;;;5099812;28;20022;-63
2021/05/13 12:16:56;;;;;;;4.85;3.75;;;;;;;;;;5102325;28;20024;-63
2021/05/13 12:19:22;;;;;;;7.72;3.88;;;;;;;;;;5110781;28;20020;-63
2021/05/13 12:21:51;;;;;;;3.95;2.95;;;;;;;;;;5094886;28;20016;-63
2021/05/13 12:24:16;;;;;;;5.47;3.33;;;;;;;;;;5092508;28;20012;-63
2021/05/13 12:26:42;;;;;;;2.83;2.00;;;;;;;;;;5088817;28;20036;-63
2021/05/13 12:29:14;;;;;;;4.00;2.20;;;;;;;;;;5090002;28;20139;-63
2021/05/13 12:31:39;;;;;;;6.00;3.08;;;;;;;;;;5103122;28;20012;-63
2021/05/13 12:34:05;;;;;;;5.38;4.03;;;;;;;;;;5099784;28;20493;-63
2021/05/13 12:36:34;;;;;;;5.55;3.88;;;;;;;;;;5090555;28;20095;-63
2021/05/13 12:39:00;;;;;;;4.40;2.88;;;;;;;;;;5090718;28;20028;-63
2021/05/13 12:41:26;;;;;;;2.65;2.13;;;;;;;;;;5096254;28;20019;-63
2021/05/13 12:44:04;;;;;;;4.53;2.30;;;;;;;;;;5092627;28;20020;-62
2021/05/13 12:46:29;;;;;;;3.95;2.80;;;;;;;;;;5087837;28;20020;-63
2021/05/13 12:48:54;;;;;;;5.10;4.18;;;;;;;;;;5089269;28;20172;-63
2021/05/13 12:51:21;;;;;;;5.05;4.10;;;;;;;;;;5096365;28;20410;-63
2021/05/13 12:53:47;;;;;;;4.70;4.05;;;;;;;;;;5100248;28;20028;-63
2021/05/13 12:56:31;;;;;;;5.47;4.90;;;;;;;;;;5088440;28;20033;-63
2021/05/13 12:59:12;;;;;;;6.63;5.75;;;;;;;;;;5104857;28;20037;-63
2021/05/13 13:01:38;;;;;;;3.60;3.17;;;;;;;;;;5094841;28;20042;-63
2021/05/13 13:04:07;;;;;;;2.17;2.00;;;;;;;;;;5110248;28;20031;-63
2021/05/13 13:06:33;;;;;;;4.50;4.10;;;;;;;;;;5089207;28;20065;-63
2021/05/13 13:08:58;;;;;;;5.72;5.00;;;;;;;;;;5096055;28;20020;-63
2021/05/13 13:11:31;;;;;;;6.90;5.35;;;;;;;;;;5096940;28;20039;-63
2021/05/13 13:14:00;;;;;;;4.28;3.47;;;;;;;;;;5103553;28;20027;-63
2021/05/13 13:16:25;;;;;;;5.65;3.63;;;;;;;;;;5089721;28;20024;-63
2021/05/13 13:19:03;;;;;;;4.78;3.90;;;;;;;;;;5090916;28;20008;-63
2021/05/13 13:21:29;;;;;;;5.72;4.55;;;;;;;;;;5106628;28;20012;-62
2021/05/13 13:23:54;;;;;;;4.95;4.53;;;;;;;;;;5107726;28;20019;-63
2021/05/13 13:26:19;;;;;;;5.80;5.03;;;;;;;;;;5091585;28;20036;-62
2021/05/13 13:28:45;;;;;;;6.72;5.32;;;;;;;;;;5106259;28;20385;-62
2021/05/13 13:31:16;;;;;;;7.15;5.57;;;;;;;;;;5101388;28;20020;-63
2021/05/13 13:33:44;;;;;;;6.95;6.25;;;;;;;;;;5093565;28;20107;-62
2021/05/13 13:36:09;;;;;;;8.73;7.38;;;;;;;;;;5094213;28;20024;-62
2021/05/13 13:38:35;;;;;;;7.43;6.82;;;;;;;;;;5099675;28;20023;-63
2021/05/13 13:41:01;;;;;;;7.93;6.22;;;;;;;;;;5110437;28;20024;-63
2021/05/13 13:43:28;;;;;;;7.28;6.57;;;;;;;;;;5098962;28;20469;-63
2021/05/13 13:45:54;;;;;;;9.45;7.85;;;;;;;;;;5095835;28;20031;-59
2021/05/13 13:48:20;;;;;;;8.43;7.07;;;;;;;;;;5100829;28;20020;-63
2021/05/13 13:50:47;;;;;;;4.00;2.88;;;;;;;;;;5100584;28;20021;-64
2021/05/13 13:53:14;;;;;;;8.15;6.78;;;;;;;;;;5105244;27;20016;-62
2021/05/13 13:55:39;;;;;;;6.85;5.55;;;;;;;;;;5096805;28;20016;-63
2021/05/13 13:58:05;;;;;;;6.93;6.35;;;;;;;;;;5100751;28;20064;-64
2021/05/13 14:00:31;;;;;;;4.75;4.35;;;;;;;;;;5093891;28;20012;-63
2021/05/13 14:02:56;;;;;;;5.53;4.18;;;;;;;;;;5109191;28;20004;-60
2021/05/13 14:05:23;;;;;;;6.82;4.57;;;;;;;;;;5095286;28;20020;-60
2021/05/13 14:07:48;;;;;;;3.42;2.50;;;;;;;;;;5095662;28;20517;-58
2021/05/13 14:10:14;;;;;;;4.80;4.35;;;;;;;;;;5093790;28;20099;-60
2021/05/13 14:12:40;;;;;;;8.05;5.07;;;;;;;;;;5096398;28;20062;-58
2021/05/13 14:15:06;;;;;;;4.93;4.05;;;;;;;;;;5091620;28;20036;-61
2021/05/13 14:17:31;;;;;;;5.13;3.90;;;;;;;;;;5096881;28;20008;-60
2021/05/13 14:19:57;;;;;;;6.22;4.40;;;;;;;;;;5091999;28;20562;-61
2021/05/13 14:22:22;;;;;;;4.28;3.88;;;;;;;;;;5103615;28;20368;-62
2021/05/13 14:24:47;;;;;;;5.35;4.85;;;;;;;;;;5093824;28;20019;-61
2021/05/13 14:27:13;;;;;;;3.35;3.05;;;;;;;;;;5102765;28;20040;-61
2021/05/13 14:29:38;;;;;;;4.00;3.53;;;;;;;;;;5097089;28;20320;-61
2021/05/13 14:32:03;;;;;;;4.35;3.95;;;;;;;;;;5093549;28;20595;-61
2021/05/13 14:34:29;;;;;;;5.88;4.25;;;;;;;;;;5107604;28;20024;-61
2021/05/13 14:36:54;;;;;;;3.53;3.25;;;;;;;;;;5107944;28;20094;-61
2021/05/13 14:39:19;;;;;;;6.10;3.47;;;;;;;;;;5110731;28;20070;-61
2021/05/13 14:41:45;;;;;;;5.15;3.40;;;;;;;;;;5105663;28;20474;-61
2021/05/13 14:44:10;;;;;;;5.00;4.43;;;;;;;;;;5106746;28;20471;-61
2021/05/13 14:46:35;;;;;;;5.28;4.50;;;;;;;;;;5107014;28;20061;-61
2021/05/13 14:49:13;;;;;;;5.03;4.07;;;;;;;;;;5112536;28;20020;-61